GLD1204 SBEG-SBBR
Flight info
| Callsign | GLD1204 |
|---|---|
| Flight time | 2h 29m |
| Altitude | 39000 |
| Route | GIKVI UZ6 EKEBA DCT ELISA |
| Aircraft | A333/H-SADE1E2E3GHIJ3J5M1P2RWXY/LB2D1 |
Departure
| Time | 2026-04-16 22:28 |
|---|---|
| Airport | Eduardo Gomes International Airport (SBEG) |
Arrival
| Time | 2026-04-17 00:58 |
|---|---|
| Airport | Presidente Juscelino Kubitschek International Airport (SBBR) |
| Time | Latitude | Longitude | Altitude | Speed | Heading |
|---|---|---|---|---|---|
| 2026-04-16 22:13 | -3.03206 | -60.04295 | 276 ft | 0 kts | 349° |
| 2026-04-16 22:20 | -3.03213 | -60.04293 | 276 ft | 1 kts | 349° |
| 2026-04-16 22:21 | -3.03220 | -60.04292 | 278 ft | 1 kts | 349° |
| 2026-04-16 22:21 | -3.03228 | -60.04291 | 280 ft | 1 kts | 349° |
| 2026-04-16 22:21 | -3.03235 | -60.04289 | 282 ft | 1 kts | 349° |
| 2026-04-16 22:21 | -3.03242 | -60.04288 | 282 ft | 2 kts | 348° |
| 2026-04-16 22:22 | -3.03257 | -60.04285 | 280 ft | 2 kts | 342° |
| 2026-04-16 22:22 | -3.03271 | -60.04281 | 281 ft | 2 kts | 321° |
| 2026-04-16 22:22 | -3.03282 | -60.04272 | 280 ft | 2 kts | 284° |
| 2026-04-16 22:22 | -3.03286 | -60.04258 | 281 ft | 0 kts | 248° |
| 2026-04-16 22:23 | -3.03291 | -60.04271 | 279 ft | 5 kts | 247° |
| 2026-04-16 22:24 | -3.03310 | -60.04312 | 275 ft | 8 kts | 245° |
| 2026-04-16 22:24 | -3.03333 | -60.04378 | 275 ft | 12 kts | 259° |
| 2026-04-16 22:24 | -3.03343 | -60.04471 | 275 ft | 15 kts | 264° |
| 2026-04-16 22:24 | -3.03354 | -60.04584 | 274 ft | 18 kts | 265° |
| 2026-04-16 22:25 | -3.03365 | -60.04716 | 274 ft | 20 kts | 256° |
| 2026-04-16 22:25 | -3.03425 | -60.04829 | 273 ft | 21 kts | 231° |
| 2026-04-16 22:25 | -3.03537 | -60.04937 | 273 ft | 23 kts | 224° |
| 2026-04-16 22:25 | -3.03613 | -60.05086 | 272 ft | 25 kts | 252° |
| 2026-04-16 22:26 | -3.03653 | -60.05262 | 271 ft | 27 kts | 258° |
| 2026-04-16 22:26 | -3.03688 | -60.05452 | 270 ft | 29 kts | 262° |
| 2026-04-16 22:26 | -3.03693 | -60.05657 | 269 ft | 30 kts | 270° |
| 2026-04-16 22:26 | -3.03689 | -60.05870 | 268 ft | 31 kts | 269° |
| 2026-04-16 22:27 | -3.03692 | -60.06088 | 267 ft | 25 kts | 265° |
| 2026-04-16 22:27 | -3.03792 | -60.06170 | 267 ft | 20 kts | 182° |
| 2026-04-16 22:27 | -3.03854 | -60.06112 | 268 ft | 12 kts | 95° |
| 2026-04-16 22:27 | -3.03855 | -60.06087 | 268 ft | 0 kts | 93° |
| 2026-04-16 22:28 | -3.03856 | -60.06068 | 268 ft | 25 kts | 92° |
| 2026-04-16 22:28 | -3.03853 | -60.05522 | 269 ft | 128 kts | 91° |
| 2026-04-16 22:28 | -3.03863 | -60.04374 | 396 ft | 191 kts | 90° |
| 2026-04-16 22:28 | -3.03865 | -60.03016 | 1265 ft | 199 kts | 89° |
| 2026-04-16 22:29 | -3.03867 | -60.01626 | 2315 ft | 199 kts | 89° |
| 2026-04-16 22:29 | -3.03874 | -60.00245 | 3361 ft | 198 kts | 90° |
| 2026-04-16 22:29 | -3.04171 | -59.98885 | 4269 ft | 202 kts | 115° |
| 2026-04-16 22:29 | -3.05043 | -59.97799 | 5267 ft | 202 kts | 140° |
| 2026-04-16 22:30 | -3.06233 | -59.97057 | 6254 ft | 200 kts | 150° |
| 2026-04-16 22:30 | -3.07442 | -59.96427 | 7222 ft | 194 kts | 151° |
| 2026-04-16 22:30 | -3.08645 | -59.95818 | 7992 ft | 199 kts | 150° |
| 2026-04-16 22:30 | -3.09890 | -59.95152 | 8751 ft | 204 kts | 149° |
| 2026-04-16 22:31 | -3.11129 | -59.94440 | 9562 ft | 206 kts | 147° |
| 2026-04-16 22:31 | -3.12357 | -59.93681 | 10279 ft | 209 kts | 145° |
| 2026-04-16 22:31 | -3.13579 | -59.92872 | 10996 ft | 212 kts | 143° |
| 2026-04-16 22:31 | -3.14791 | -59.92014 | 11683 ft | 215 kts | 142° |
| 2026-04-16 22:32 | -3.15990 | -59.91109 | 12375 ft | 217 kts | 140° |
| 2026-04-16 22:32 | -3.17303 | -59.90167 | 12470 ft | 251 kts | 146° |
| 2026-04-16 22:32 | -3.18677 | -59.89382 | 12612 ft | 272 kts | 149° |
| 2026-04-16 22:32 | -3.20393 | -59.88427 | 12796 ft | 293 kts | 149° |
| 2026-04-16 22:33 | -3.22222 | -59.87357 | 12988 ft | 314 kts | 147° |
| 2026-04-16 22:33 | -3.24142 | -59.86178 | 13157 ft | 333 kts | 147° |
| 2026-04-16 22:33 | -3.26154 | -59.84910 | 13341 ft | 350 kts | 146° |
| 2026-04-16 22:33 | -3.28249 | -59.83576 | 13661 ft | 361 kts | 146° |
| 2026-04-16 22:34 | -3.30371 | -59.82224 | 14202 ft | 363 kts | 146° |
| 2026-04-16 22:34 | -3.32512 | -59.80860 | 14725 ft | 365 kts | 146° |
| 2026-04-16 22:34 | -3.34666 | -59.79488 | 15244 ft | 368 kts | 146° |
| 2026-04-16 22:34 | -3.36833 | -59.78109 | 15749 ft | 371 kts | 146° |
| 2026-04-16 22:35 | -3.39024 | -59.76716 | 16248 ft | 373 kts | 146° |
| 2026-04-16 22:35 | -3.41200 | -59.75331 | 16727 ft | 376 kts | 146° |
| 2026-04-16 22:35 | -3.43414 | -59.73922 | 17211 ft | 379 kts | 146° |
| 2026-04-16 22:35 | -3.45572 | -59.72549 | 17673 ft | 381 kts | 146° |
| 2026-04-16 22:36 | -3.47821 | -59.71118 | 18137 ft | 384 kts | 146° |
| 2026-04-16 22:36 | -3.50082 | -59.69680 | 18556 ft | 386 kts | 146° |
| 2026-04-16 22:36 | -3.52071 | -59.68363 | 18906 ft | 388 kts | 144° |
| 2026-04-16 22:36 | -3.54236 | -59.66725 | 19329 ft | 390 kts | 140° |
| 2026-04-16 22:37 | -3.56287 | -59.64951 | 19746 ft | 392 kts | 136° |
| 2026-04-16 22:37 | -3.58318 | -59.63093 | 20138 ft | 395 kts | 137° |
| 2026-04-16 22:37 | -3.60365 | -59.61237 | 20550 ft | 398 kts | 137° |
| 2026-04-16 22:37 | -3.62429 | -59.59373 | 20970 ft | 401 kts | 137° |
| 2026-04-16 22:38 | -3.64508 | -59.57498 | 21378 ft | 403 kts | 137° |
| 2026-04-16 22:38 | -3.66575 | -59.55633 | 21783 ft | 406 kts | 137° |
| 2026-04-16 22:38 | -3.68683 | -59.53731 | 22185 ft | 409 kts | 137° |
| 2026-04-16 22:38 | -3.70807 | -59.51813 | 22587 ft | 412 kts | 137° |
| 2026-04-16 22:39 | -3.72940 | -59.49887 | 22991 ft | 415 kts | 137° |
| 2026-04-16 22:39 | -3.75090 | -59.47945 | 23392 ft | 418 kts | 137° |
| 2026-04-16 22:39 | -3.77025 | -59.46197 | 23707 ft | 420 kts | 137° |
| 2026-04-16 22:39 | -3.79200 | -59.44233 | 24080 ft | 421 kts | 137° |
| 2026-04-16 22:40 | -3.81378 | -59.42265 | 24445 ft | 423 kts | 137° |
| 2026-04-16 22:40 | -3.83572 | -59.40283 | 24802 ft | 425 kts | 137° |
| 2026-04-16 22:40 | -3.85770 | -59.38297 | 25170 ft | 427 kts | 137° |
| 2026-04-16 22:40 | -3.87984 | -59.36297 | 25539 ft | 429 kts | 137° |
| 2026-04-16 22:41 | -3.90205 | -59.34290 | 25894 ft | 431 kts | 137° |
| 2026-04-16 22:41 | -3.92408 | -59.32298 | 26228 ft | 433 kts | 137° |
| 2026-04-16 22:41 | -3.94652 | -59.30271 | 26565 ft | 435 kts | 137° |
| 2026-04-16 22:41 | -3.96906 | -59.28233 | 26913 ft | 437 kts | 137° |
| 2026-04-16 22:42 | -3.99172 | -59.26185 | 27246 ft | 439 kts | 137° |
| 2026-04-16 22:42 | -4.01443 | -59.24133 | 27595 ft | 441 kts | 137° |
| 2026-04-16 22:42 | -4.03727 | -59.22068 | 27905 ft | 443 kts | 137° |
| 2026-04-16 22:42 | -4.06023 | -59.19992 | 28223 ft | 446 kts | 137° |
| 2026-04-16 22:43 | -4.08330 | -59.17906 | 28568 ft | 447 kts | 137° |
| 2026-04-16 22:43 | -4.10643 | -59.15814 | 28881 ft | 450 kts | 137° |
| 2026-04-16 22:43 | -4.12971 | -59.13709 | 29177 ft | 452 kts | 137° |
| 2026-04-16 22:43 | -4.15311 | -59.11593 | 29503 ft | 454 kts | 137° |
| 2026-04-16 22:44 | -4.17663 | -59.09466 | 29818 ft | 456 kts | 137° |
| 2026-04-16 22:44 | -4.19994 | -59.07357 | 30108 ft | 458 kts | 137° |
| 2026-04-16 22:44 | -4.22369 | -59.05209 | 30400 ft | 460 kts | 137° |
| 2026-04-16 22:44 | -4.24749 | -59.03056 | 30690 ft | 462 kts | 137° |
| 2026-04-16 22:45 | -4.27136 | -59.00895 | 30989 ft | 464 kts | 137° |
| 2026-04-16 22:45 | -4.29541 | -58.98719 | 31260 ft | 467 kts | 137° |
| 2026-04-16 22:45 | -4.31963 | -58.96528 | 31546 ft | 469 kts | 137° |
| 2026-04-16 22:45 | -4.34387 | -58.94334 | 31828 ft | 471 kts | 137° |
| 2026-04-16 22:46 | -4.36818 | -58.92133 | 32121 ft | 472 kts | 137° |
| 2026-04-16 22:46 | -4.39269 | -58.89915 | 32352 ft | 475 kts | 137° |
| 2026-04-16 22:46 | -4.41725 | -58.87692 | 32573 ft | 476 kts | 138° |
| 2026-04-16 22:46 | -4.44185 | -58.85464 | 32767 ft | 478 kts | 138° |
| 2026-04-16 22:47 | -4.46656 | -58.83227 | 32946 ft | 479 kts | 138° |
| 2026-04-16 22:47 | -4.49134 | -58.80983 | 33104 ft | 480 kts | 138° |
| 2026-04-16 22:47 | -4.51614 | -58.78737 | 33250 ft | 481 kts | 138° |
| 2026-04-16 22:47 | -4.54098 | -58.76488 | 33421 ft | 481 kts | 138° |
| 2026-04-16 22:48 | -4.56578 | -58.74241 | 33592 ft | 481 kts | 137° |
| 2026-04-16 22:48 | -4.59059 | -58.71986 | 33791 ft | 480 kts | 137° |
| 2026-04-16 22:48 | -4.61527 | -58.69738 | 33946 ft | 480 kts | 137° |
| 2026-04-16 22:48 | -4.63168 | -58.68243 | 34054 ft | 480 kts | 137° |
| 2026-04-16 22:49 | -4.66162 | -58.65516 | 34240 ft | 479 kts | 137° |
| 2026-04-16 22:49 | -4.68628 | -58.63270 | 34428 ft | 478 kts | 137° |
| 2026-04-16 22:49 | -4.71088 | -58.61030 | 34583 ft | 478 kts | 137° |
| 2026-04-16 22:49 | -4.73553 | -58.58786 | 34725 ft | 478 kts | 137° |
| 2026-04-16 22:50 | -4.76013 | -58.56546 | 34887 ft | 477 kts | 137° |
| 2026-04-16 22:50 | -4.78471 | -58.54307 | 35042 ft | 477 kts | 137° |
| 2026-04-16 22:50 | -4.80929 | -58.52069 | 35190 ft | 477 kts | 137° |
| 2026-04-16 22:50 | -4.83385 | -58.49831 | 35392 ft | 476 kts | 137° |
| 2026-04-16 22:51 | -4.85837 | -58.47597 | 35548 ft | 476 kts | 137° |
| 2026-04-16 22:51 | -4.88288 | -58.45364 | 35726 ft | 476 kts | 137° |
| 2026-04-16 22:51 | -4.90740 | -58.43130 | 35911 ft | 476 kts | 137° |
| 2026-04-16 22:51 | -4.93191 | -58.40896 | 36108 ft | 475 kts | 137° |
| 2026-04-16 22:52 | -4.95632 | -58.38671 | 36286 ft | 475 kts | 137° |
| 2026-04-16 22:52 | -4.98075 | -58.36444 | 36464 ft | 475 kts | 137° |
| 2026-04-16 22:52 | -5.00514 | -58.34220 | 36671 ft | 474 kts | 137° |
| 2026-04-16 22:52 | -5.02959 | -58.31991 | 36860 ft | 474 kts | 137° |
| 2026-04-16 22:53 | -5.05394 | -58.29770 | 37060 ft | 473 kts | 137° |
| 2026-04-16 22:53 | -5.07828 | -58.27551 | 37233 ft | 473 kts | 137° |
| 2026-04-16 22:53 | -5.10260 | -58.25333 | 37418 ft | 472 kts | 137° |
| 2026-04-16 22:53 | -5.12692 | -58.23115 | 37600 ft | 472 kts | 137° |
| 2026-04-16 22:54 | -5.15125 | -58.20895 | 37778 ft | 472 kts | 137° |
| 2026-04-16 22:54 | -5.17549 | -58.18683 | 37945 ft | 472 kts | 137° |
| 2026-04-16 22:54 | -5.19980 | -58.16465 | 38138 ft | 471 kts | 137° |
| 2026-04-16 22:54 | -5.22370 | -58.14284 | 38313 ft | 471 kts | 137° |
| 2026-04-16 22:55 | -5.24799 | -58.12080 | 38477 ft | 470 kts | 137° |
| 2026-04-16 22:55 | -5.27235 | -58.09890 | 38640 ft | 470 kts | 138° |
| 2026-04-16 22:55 | -5.29672 | -58.07702 | 38794 ft | 469 kts | 138° |
| 2026-04-16 22:55 | -5.32102 | -58.05519 | 38827 ft | 469 kts | 138° |
| 2026-04-16 22:56 | -5.36959 | -58.01149 | 38823 ft | 468 kts | 138° |
| 2026-04-16 22:56 | -5.41793 | -57.96794 | 38823 ft | 467 kts | 138° |
| 2026-04-16 22:57 | -5.46635 | -57.92431 | 38827 ft | 467 kts | 138° |
| 2026-04-16 22:57 | -5.51478 | -57.88066 | 38831 ft | 467 kts | 138° |
| 2026-04-16 22:58 | -5.56286 | -57.83732 | 38827 ft | 466 kts | 138° |
| 2026-04-16 22:58 | -5.60330 | -57.80085 | 38829 ft | 466 kts | 138° |
| 2026-04-16 22:59 | -5.65125 | -57.75760 | 38827 ft | 466 kts | 138° |
| 2026-04-16 22:59 | -5.69954 | -57.71405 | 38827 ft | 465 kts | 138° |
| 2026-04-16 23:00 | -5.74775 | -57.67054 | 38823 ft | 465 kts | 138° |
| 2026-04-16 23:00 | -5.79297 | -57.62973 | 38820 ft | 465 kts | 138° |
| 2026-04-16 23:01 | -5.84111 | -57.58627 | 38820 ft | 466 kts | 138° |
| 2026-04-16 23:01 | -5.88933 | -57.54274 | 38815 ft | 466 kts | 138° |
| 2026-04-16 23:02 | -5.93758 | -57.49916 | 38817 ft | 466 kts | 138° |
| 2026-04-16 23:02 | -5.98589 | -57.45552 | 38821 ft | 467 kts | 138° |
| 2026-04-16 23:03 | -6.03419 | -57.41189 | 38816 ft | 468 kts | 138° |
| 2026-04-16 23:03 | -6.08261 | -57.36812 | 38815 ft | 468 kts | 138° |
| 2026-04-16 23:04 | -6.13109 | -57.32430 | 38815 ft | 469 kts | 138° |
| 2026-04-16 23:04 | -6.17929 | -57.28070 | 38819 ft | 469 kts | 138° |
| 2026-04-16 23:05 | -6.22789 | -57.23674 | 38829 ft | 470 kts | 138° |
| 2026-04-16 23:05 | -6.27647 | -57.19279 | 38829 ft | 470 kts | 138° |
| 2026-04-16 23:06 | -6.32514 | -57.14875 | 38826 ft | 471 kts | 138° |
| 2026-04-16 23:06 | -6.37383 | -57.10467 | 38831 ft | 471 kts | 138° |
| 2026-04-16 23:07 | -6.42251 | -57.06060 | 38834 ft | 471 kts | 138° |
| 2026-04-16 23:07 | -6.47113 | -57.01657 | 38833 ft | 470 kts | 138° |
| 2026-04-16 23:08 | -6.51974 | -56.97253 | 38836 ft | 470 kts | 138° |
| 2026-04-16 23:08 | -6.56807 | -56.92873 | 38835 ft | 470 kts | 138° |
| 2026-04-16 23:09 | -6.61666 | -56.88468 | 38839 ft | 469 kts | 138° |
| 2026-04-16 23:09 | -6.66520 | -56.84068 | 38841 ft | 469 kts | 138° |
| 2026-04-16 23:10 | -6.71367 | -56.79671 | 38841 ft | 469 kts | 138° |
| 2026-04-16 23:10 | -6.76182 | -56.75303 | 38837 ft | 469 kts | 138° |
| 2026-04-16 23:11 | -6.81028 | -56.70906 | 38832 ft | 469 kts | 138° |
| 2026-04-16 23:11 | -6.85867 | -56.66514 | 38836 ft | 469 kts | 138° |
| 2026-04-16 23:12 | -6.90707 | -56.62119 | 38834 ft | 469 kts | 138° |
| 2026-04-16 23:12 | -6.95547 | -56.57722 | 38840 ft | 469 kts | 138° |
| 2026-04-16 23:13 | -7.00395 | -56.53318 | 38833 ft | 469 kts | 138° |
| 2026-04-16 23:13 | -7.05242 | -56.48914 | 38841 ft | 469 kts | 138° |
| 2026-04-16 23:14 | -7.10089 | -56.44507 | 38833 ft | 470 kts | 138° |
| 2026-04-16 23:14 | -7.14948 | -56.40090 | 38835 ft | 471 kts | 138° |
| 2026-04-16 23:15 | -7.22242 | -56.33455 | 38834 ft | 471 kts | 138° |
| 2026-04-16 23:16 | -7.27082 | -56.29051 | 38835 ft | 472 kts | 138° |
| 2026-04-16 23:16 | -7.31960 | -56.24610 | 38837 ft | 473 kts | 138° |
| 2026-04-16 23:17 | -7.36839 | -56.20164 | 38840 ft | 473 kts | 138° |
| 2026-04-16 23:17 | -7.41720 | -56.15717 | 38847 ft | 473 kts | 138° |
| 2026-04-16 23:18 | -7.46605 | -56.11265 | 38842 ft | 474 kts | 138° |
| 2026-04-16 23:18 | -7.51499 | -56.06803 | 38839 ft | 474 kts | 138° |
| 2026-04-16 23:19 | -7.56398 | -56.02334 | 38839 ft | 475 kts | 138° |
| 2026-04-16 23:19 | -7.61264 | -55.97894 | 38841 ft | 475 kts | 138° |
| 2026-04-16 23:20 | -7.66164 | -55.93423 | 38839 ft | 475 kts | 138° |
| 2026-04-16 23:20 | -7.71068 | -55.88947 | 38843 ft | 475 kts | 138° |
| 2026-04-16 23:21 | -7.75973 | -55.84467 | 38852 ft | 476 kts | 138° |
| 2026-04-16 23:21 | -7.80876 | -55.79988 | 38851 ft | 475 kts | 138° |
| 2026-04-16 23:22 | -7.85778 | -55.75508 | 38851 ft | 475 kts | 138° |
| 2026-04-16 23:22 | -7.90680 | -55.71027 | 38850 ft | 475 kts | 138° |
| 2026-04-16 23:23 | -7.95578 | -55.66548 | 38846 ft | 475 kts | 138° |
| 2026-04-16 23:23 | -8.00484 | -55.62060 | 38844 ft | 475 kts | 139° |
| 2026-04-16 23:24 | -8.05380 | -55.57580 | 38845 ft | 475 kts | 139° |
| 2026-04-16 23:24 | -8.10249 | -55.53123 | 38853 ft | 475 kts | 139° |
| 2026-04-16 23:25 | -8.15149 | -55.48636 | 38850 ft | 475 kts | 139° |
| 2026-04-16 23:25 | -8.20040 | -55.44156 | 38846 ft | 475 kts | 139° |
| 2026-04-16 23:26 | -8.24932 | -55.39672 | 38851 ft | 475 kts | 139° |
| 2026-04-16 23:26 | -8.29821 | -55.35192 | 38857 ft | 474 kts | 139° |
| 2026-04-16 23:27 | -8.34702 | -55.30716 | 38859 ft | 474 kts | 139° |
| 2026-04-16 23:27 | -8.39590 | -55.26232 | 38849 ft | 473 kts | 139° |
| 2026-04-16 23:28 | -8.44467 | -55.21757 | 38848 ft | 473 kts | 139° |
| 2026-04-16 23:28 | -8.49338 | -55.17285 | 38854 ft | 473 kts | 139° |
| 2026-04-16 23:29 | -8.54180 | -55.12839 | 38857 ft | 472 kts | 139° |
| 2026-04-16 23:29 | -8.59038 | -55.08377 | 38862 ft | 472 kts | 139° |
| 2026-04-16 23:30 | -8.63898 | -55.03911 | 38864 ft | 472 kts | 139° |
| 2026-04-16 23:30 | -8.68749 | -54.99452 | 38859 ft | 472 kts | 139° |
| 2026-04-16 23:31 | -8.73576 | -54.95013 | 38859 ft | 472 kts | 138° |
| 2026-04-16 23:31 | -8.78433 | -54.90545 | 38858 ft | 472 kts | 138° |
| 2026-04-16 23:32 | -8.83292 | -54.86072 | 38863 ft | 472 kts | 139° |
| 2026-04-16 23:32 | -8.88156 | -54.81595 | 38864 ft | 473 kts | 138° |
| 2026-04-16 23:33 | -8.93019 | -54.77116 | 38865 ft | 473 kts | 138° |
| 2026-04-16 23:33 | -8.97886 | -54.72631 | 38865 ft | 473 kts | 138° |
| 2026-04-16 23:34 | -9.02750 | -54.68148 | 38869 ft | 473 kts | 139° |
| 2026-04-16 23:34 | -9.07584 | -54.63691 | 38873 ft | 473 kts | 139° |
| 2026-04-16 23:35 | -9.12445 | -54.59207 | 38875 ft | 472 kts | 139° |
| 2026-04-16 23:35 | -9.17301 | -54.54727 | 38873 ft | 472 kts | 139° |
| 2026-04-16 23:36 | -9.22015 | -54.50088 | 38863 ft | 472 kts | 136° |
| 2026-04-16 23:36 | -9.26645 | -54.45376 | 38862 ft | 472 kts | 137° |
| 2026-04-16 23:37 | -9.31309 | -54.40682 | 38860 ft | 472 kts | 137° |
| 2026-04-16 23:37 | -9.35949 | -54.36034 | 38855 ft | 472 kts | 137° |
| 2026-04-16 23:38 | -9.40624 | -54.31351 | 38848 ft | 473 kts | 137° |
| 2026-04-16 23:38 | -9.45302 | -54.26662 | 38858 ft | 473 kts | 137° |
| 2026-04-16 23:39 | -9.49979 | -54.21972 | 38855 ft | 473 kts | 137° |
| 2026-04-16 23:39 | -9.54658 | -54.17276 | 38856 ft | 473 kts | 137° |
| 2026-04-16 23:40 | -9.59338 | -54.12579 | 38855 ft | 474 kts | 137° |
| 2026-04-16 23:40 | -9.64029 | -54.07868 | 38861 ft | 474 kts | 137° |
| 2026-04-16 23:41 | -9.68715 | -54.03161 | 38855 ft | 474 kts | 137° |
| 2026-04-16 23:41 | -9.73374 | -53.98478 | 38855 ft | 475 kts | 137° |
| 2026-04-16 23:42 | -9.78071 | -53.93756 | 38863 ft | 475 kts | 137° |
| 2026-04-16 23:42 | -9.82767 | -53.89033 | 38861 ft | 476 kts | 137° |
| 2026-04-16 23:43 | -9.87465 | -53.84306 | 38863 ft | 476 kts | 137° |
| 2026-04-16 23:43 | -9.92299 | -53.79720 | 38860 ft | 475 kts | 140° |
| 2026-04-16 23:44 | -9.97187 | -53.75200 | 38866 ft | 476 kts | 139° |
| 2026-04-16 23:44 | -10.02058 | -53.70649 | 38865 ft | 476 kts | 139° |
| 2026-04-16 23:45 | -10.06921 | -53.66086 | 38870 ft | 476 kts | 139° |
| 2026-04-16 23:45 | -10.11783 | -53.61520 | 38868 ft | 476 kts | 139° |
| 2026-04-16 23:46 | -10.15821 | -53.57726 | 38870 ft | 476 kts | 139° |
| 2026-04-16 23:46 | -10.20686 | -53.53154 | 38870 ft | 476 kts | 139° |
| 2026-04-16 23:47 | -10.25548 | -53.48584 | 38867 ft | 476 kts | 139° |
| 2026-04-16 23:47 | -10.30405 | -53.44015 | 38869 ft | 476 kts | 139° |
| 2026-04-16 23:48 | -10.35243 | -53.39463 | 38863 ft | 477 kts | 139° |
| 2026-04-16 23:48 | -10.40107 | -53.34873 | 38860 ft | 477 kts | 139° |
| 2026-04-16 23:49 | -10.44963 | -53.30278 | 38866 ft | 477 kts | 139° |
| 2026-04-16 23:49 | -10.49825 | -53.25678 | 38859 ft | 478 kts | 139° |
| 2026-04-16 23:50 | -10.54687 | -53.21078 | 38862 ft | 478 kts | 139° |
| 2026-04-16 23:50 | -10.59569 | -53.16456 | 38862 ft | 478 kts | 139° |
| 2026-04-16 23:51 | -10.64442 | -53.11841 | 38869 ft | 479 kts | 139° |
| 2026-04-16 23:51 | -10.69317 | -53.07221 | 38865 ft | 479 kts | 139° |
| 2026-04-16 23:52 | -10.74163 | -53.02627 | 38869 ft | 479 kts | 139° |
| 2026-04-16 23:52 | -10.79044 | -52.97998 | 38866 ft | 479 kts | 139° |
| 2026-04-16 23:53 | -10.83921 | -52.93371 | 38868 ft | 480 kts | 139° |
| 2026-04-16 23:53 | -10.88802 | -52.88738 | 38870 ft | 480 kts | 139° |
| 2026-04-16 23:54 | -10.93682 | -52.84103 | 38870 ft | 480 kts | 139° |
| 2026-04-16 23:54 | -10.98565 | -52.79463 | 38881 ft | 480 kts | 139° |
| 2026-04-16 23:55 | -11.03450 | -52.74819 | 38871 ft | 479 kts | 139° |
| 2026-04-16 23:55 | -11.08318 | -52.70190 | 38870 ft | 479 kts | 139° |
| 2026-04-16 23:56 | -11.13160 | -52.65582 | 38870 ft | 479 kts | 139° |
| 2026-04-16 23:56 | -11.18028 | -52.60948 | 38872 ft | 479 kts | 139° |
| 2026-04-16 23:57 | -11.22900 | -52.56308 | 38874 ft | 479 kts | 139° |
| 2026-04-16 23:57 | -11.27765 | -52.51672 | 38876 ft | 478 kts | 139° |
| 2026-04-16 23:58 | -11.32620 | -52.47043 | 38879 ft | 478 kts | 139° |
| 2026-04-16 23:58 | -11.37485 | -52.42403 | 38879 ft | 478 kts | 139° |
| 2026-04-16 23:59 | -11.42339 | -52.37771 | 38875 ft | 478 kts | 139° |
| 2026-04-16 23:59 | -11.47163 | -52.33164 | 38884 ft | 478 kts | 139° |
| 2026-04-17 00:00 | -11.52019 | -52.28526 | 38878 ft | 478 kts | 139° |
| 2026-04-17 00:00 | -11.56961 | -52.24013 | 38881 ft | 476 kts | 142° |
| 2026-04-17 00:01 | -11.62043 | -52.19677 | 38877 ft | 476 kts | 142° |
| 2026-04-17 00:01 | -11.67110 | -52.15306 | 38879 ft | 477 kts | 142° |
| 2026-04-17 00:02 | -11.72152 | -52.10916 | 38877 ft | 477 kts | 142° |
| 2026-04-17 00:02 | -11.77199 | -52.06516 | 38873 ft | 477 kts | 142° |
| 2026-04-17 00:03 | -11.82214 | -52.02142 | 38877 ft | 477 kts | 142° |
| 2026-04-17 00:03 | -11.87266 | -51.97734 | 38886 ft | 477 kts | 142° |
| 2026-04-17 00:04 | -11.92279 | -51.93358 | 38876 ft | 477 kts | 142° |
| 2026-04-17 00:04 | -11.97328 | -51.88949 | 38878 ft | 478 kts | 142° |
| 2026-04-17 00:05 | -12.02383 | -51.84531 | 38888 ft | 478 kts | 142° |
| 2026-04-17 00:05 | -12.07432 | -51.80118 | 38888 ft | 478 kts | 142° |
| 2026-04-17 00:06 | -12.12488 | -51.75695 | 38880 ft | 478 kts | 142° |
| 2026-04-17 00:06 | -12.17538 | -51.71275 | 38885 ft | 478 kts | 142° |
| 2026-04-17 00:07 | -12.22588 | -51.66853 | 38882 ft | 478 kts | 142° |
| 2026-04-17 00:07 | -12.27610 | -51.62452 | 38886 ft | 478 kts | 142° |
| 2026-04-17 00:08 | -12.32619 | -51.58062 | 38889 ft | 478 kts | 142° |
| 2026-04-17 00:08 | -12.37705 | -51.53602 | 38882 ft | 478 kts | 142° |
| 2026-04-17 00:09 | -12.42753 | -51.49171 | 38883 ft | 478 kts | 142° |
| 2026-04-17 00:09 | -12.47806 | -51.44735 | 38884 ft | 478 kts | 142° |
| 2026-04-17 00:10 | -12.52854 | -51.40301 | 38883 ft | 477 kts | 142° |
| 2026-04-17 00:10 | -12.57723 | -51.35736 | 38887 ft | 478 kts | 139° |
| 2026-04-17 00:11 | -12.62556 | -51.31049 | 38883 ft | 478 kts | 139° |
| 2026-04-17 00:11 | -12.67405 | -51.26397 | 38884 ft | 477 kts | 140° |
| 2026-04-17 00:12 | -12.72260 | -51.21759 | 38881 ft | 477 kts | 140° |
| 2026-04-17 00:12 | -12.77111 | -51.17125 | 38877 ft | 477 kts | 140° |
| 2026-04-17 00:13 | -12.81955 | -51.12494 | 38874 ft | 476 kts | 140° |
| 2026-04-17 00:13 | -12.86799 | -51.07860 | 38874 ft | 476 kts | 140° |
| 2026-04-17 00:14 | -12.91640 | -51.03226 | 38872 ft | 476 kts | 140° |
| 2026-04-17 00:14 | -12.96480 | -50.98591 | 38876 ft | 476 kts | 140° |
| 2026-04-17 00:15 | -13.01311 | -50.93962 | 38878 ft | 475 kts | 140° |
| 2026-04-17 00:15 | -13.06150 | -50.89323 | 38877 ft | 475 kts | 140° |
| 2026-04-17 00:16 | -13.10944 | -50.84724 | 38867 ft | 475 kts | 140° |
| 2026-04-17 00:16 | -13.15770 | -50.80092 | 38878 ft | 475 kts | 140° |
| 2026-04-17 00:17 | -13.20591 | -50.75462 | 38870 ft | 474 kts | 140° |
| 2026-04-17 00:17 | -13.25415 | -50.70827 | 38869 ft | 474 kts | 140° |
| 2026-04-17 00:18 | -13.30236 | -50.66192 | 38868 ft | 474 kts | 140° |
| 2026-04-17 00:18 | -13.35249 | -50.61895 | 38867 ft | 472 kts | 144° |
| 2026-04-17 00:19 | -13.40399 | -50.57711 | 38866 ft | 472 kts | 144° |
| 2026-04-17 00:19 | -13.45546 | -50.53513 | 38864 ft | 472 kts | 144° |
| 2026-04-17 00:20 | -13.50688 | -50.49316 | 38874 ft | 472 kts | 144° |
| 2026-04-17 00:20 | -13.55826 | -50.45120 | 38880 ft | 472 kts | 144° |
| 2026-04-17 00:21 | -13.60970 | -50.40919 | 38876 ft | 472 kts | 144° |
| 2026-04-17 00:21 | -13.66112 | -50.36716 | 38877 ft | 471 kts | 144° |
| 2026-04-17 00:22 | -13.73777 | -50.30446 | 38869 ft | 471 kts | 144° |
| 2026-04-17 00:22 | -13.78912 | -50.26244 | 38878 ft | 471 kts | 144° |
| 2026-04-17 00:23 | -13.84039 | -50.22045 | 38878 ft | 471 kts | 144° |
| 2026-04-17 00:23 | -13.89167 | -50.17842 | 38883 ft | 470 kts | 144° |
| 2026-04-17 00:24 | -13.94282 | -50.13649 | 38878 ft | 470 kts | 144° |
| 2026-04-17 00:24 | -13.99403 | -50.09447 | 38879 ft | 470 kts | 144° |
| 2026-04-17 00:25 | -14.04485 | -50.05275 | 38891 ft | 470 kts | 144° |
| 2026-04-17 00:25 | -14.09587 | -50.01085 | 38885 ft | 469 kts | 144° |
| 2026-04-17 00:26 | -14.14698 | -49.96885 | 38888 ft | 469 kts | 144° |
| 2026-04-17 00:26 | -14.19795 | -49.92693 | 38893 ft | 469 kts | 144° |
| 2026-04-17 00:27 | -14.24900 | -49.88492 | 38899 ft | 469 kts | 144° |
| 2026-04-17 00:27 | -14.29999 | -49.84294 | 38889 ft | 468 kts | 144° |
| 2026-04-17 00:28 | -14.35064 | -49.80122 | 38888 ft | 468 kts | 144° |
| 2026-04-17 00:28 | -14.40135 | -49.75941 | 38724 ft | 465 kts | 144° |
| 2026-04-17 00:29 | -14.42662 | -49.73857 | 38246 ft | 464 kts | 144° |
| 2026-04-17 00:29 | -14.45194 | -49.71769 | 37533 ft | 466 kts | 144° |
| 2026-04-17 00:29 | -14.47730 | -49.69677 | 36802 ft | 467 kts | 144° |
| 2026-04-17 00:29 | -14.50280 | -49.67572 | 36003 ft | 470 kts | 144° |
| 2026-04-17 00:30 | -14.52835 | -49.65463 | 35214 ft | 472 kts | 144° |
| 2026-04-17 00:30 | -14.55406 | -49.63340 | 34424 ft | 475 kts | 144° |
| 2026-04-17 00:30 | -14.57990 | -49.61205 | 33578 ft | 477 kts | 144° |
| 2026-04-17 00:30 | -14.60588 | -49.59059 | 32645 ft | 480 kts | 144° |
| 2026-04-17 00:31 | -14.63202 | -49.56900 | 31683 ft | 483 kts | 143° |
| 2026-04-17 00:31 | -14.64946 | -49.55457 | 31071 ft | 485 kts | 143° |
| 2026-04-17 00:31 | -14.68117 | -49.52198 | 30168 ft | 485 kts | 130° |
| 2026-04-17 00:31 | -14.69998 | -49.49318 | 29547 ft | 483 kts | 121° |
| 2026-04-17 00:32 | -14.71400 | -49.46172 | 28915 ft | 480 kts | 111° |
| 2026-04-17 00:32 | -14.72543 | -49.42948 | 28298 ft | 476 kts | 111° |
| 2026-04-17 00:32 | -14.73692 | -49.39759 | 27690 ft | 472 kts | 112° |
| 2026-04-17 00:32 | -14.74467 | -49.37623 | 27288 ft | 469 kts | 112° |
| 2026-04-17 00:33 | -14.75608 | -49.34486 | 26692 ft | 464 kts | 111° |
| 2026-04-17 00:33 | -14.76726 | -49.31410 | 26105 ft | 461 kts | 111° |
| 2026-04-17 00:33 | -14.77848 | -49.28323 | 25535 ft | 457 kts | 111° |
| 2026-04-17 00:33 | -14.78958 | -49.25265 | 24966 ft | 453 kts | 111° |
| 2026-04-17 00:34 | -14.80058 | -49.22229 | 24411 ft | 449 kts | 111° |
| 2026-04-17 00:34 | -14.81148 | -49.19222 | 23848 ft | 445 kts | 111° |
| 2026-04-17 00:34 | -14.82251 | -49.16246 | 23252 ft | 441 kts | 111° |
| 2026-04-17 00:34 | -14.83364 | -49.13302 | 22623 ft | 437 kts | 111° |
| 2026-04-17 00:35 | -14.84463 | -49.10400 | 21998 ft | 432 kts | 111° |
| 2026-04-17 00:35 | -14.85552 | -49.07518 | 21360 ft | 428 kts | 111° |
| 2026-04-17 00:35 | -14.86626 | -49.04669 | 20757 ft | 424 kts | 111° |
| 2026-04-17 00:35 | -14.87691 | -49.01838 | 20126 ft | 420 kts | 111° |
| 2026-04-17 00:36 | -14.88728 | -48.99074 | 19525 ft | 416 kts | 111° |
| 2026-04-17 00:36 | -14.89770 | -48.96300 | 18909 ft | 412 kts | 111° |
| 2026-04-17 00:36 | -14.90802 | -48.93547 | 18311 ft | 408 kts | 111° |
| 2026-04-17 00:36 | -14.91825 | -48.90818 | 17629 ft | 404 kts | 111° |
| 2026-04-17 00:37 | -14.92837 | -48.88120 | 16963 ft | 400 kts | 111° |
| 2026-04-17 00:37 | -14.93829 | -48.85475 | 16298 ft | 396 kts | 111° |
| 2026-04-17 00:37 | -14.94818 | -48.82835 | 15630 ft | 392 kts | 111° |
| 2026-04-17 00:37 | -14.95801 | -48.80211 | 14980 ft | 388 kts | 111° |
| 2026-04-17 00:38 | -14.96770 | -48.77621 | 14349 ft | 384 kts | 111° |
| 2026-04-17 00:38 | -14.97730 | -48.75056 | 13714 ft | 381 kts | 110° |
| 2026-04-17 00:38 | -14.98678 | -48.72520 | 13066 ft | 376 kts | 111° |
| 2026-04-17 00:38 | -14.99614 | -48.70010 | 12426 ft | 370 kts | 111° |
| 2026-04-17 00:39 | -15.00523 | -48.67573 | 11796 ft | 366 kts | 111° |
| 2026-04-17 00:39 | -15.01439 | -48.65137 | 11148 ft | 360 kts | 112° |
| 2026-04-17 00:39 | -15.02734 | -48.62944 | 10514 ft | 356 kts | 131° |
| 2026-04-17 00:39 | -15.04568 | -48.61335 | 10316 ft | 337 kts | 148° |
| 2026-04-17 00:40 | -15.06595 | -48.60262 | 10165 ft | 318 kts | 154° |
| 2026-04-17 00:40 | -15.08527 | -48.59283 | 10012 ft | 300 kts | 154° |
| 2026-04-17 00:40 | -15.10363 | -48.58340 | 9653 ft | 291 kts | 154° |
| 2026-04-17 00:40 | -15.12168 | -48.57406 | 9121 ft | 288 kts | 153° |
| 2026-04-17 00:41 | -15.13958 | -48.56477 | 8565 ft | 286 kts | 153° |
| 2026-04-17 00:41 | -15.15730 | -48.55555 | 8055 ft | 283 kts | 153° |
| 2026-04-17 00:41 | -15.17482 | -48.54645 | 7519 ft | 280 kts | 153° |
| 2026-04-17 00:41 | -15.19210 | -48.53746 | 7139 ft | 275 kts | 153° |
| 2026-04-17 00:42 | -15.20936 | -48.52849 | 7006 ft | 279 kts | 153° |
| 2026-04-17 00:42 | -15.22645 | -48.51961 | 6974 ft | 278 kts | 153° |
| 2026-04-17 00:42 | -15.24374 | -48.51060 | 6975 ft | 279 kts | 153° |
| 2026-04-17 00:42 | -15.26115 | -48.50154 | 6972 ft | 279 kts | 153° |
| 2026-04-17 00:43 | -15.27854 | -48.49250 | 6973 ft | 280 kts | 153° |
| 2026-04-17 00:43 | -15.29594 | -48.48346 | 6980 ft | 279 kts | 153° |
| 2026-04-17 00:43 | -15.31329 | -48.47444 | 6982 ft | 279 kts | 153° |
| 2026-04-17 00:43 | -15.33068 | -48.46539 | 6984 ft | 279 kts | 153° |
| 2026-04-17 00:44 | -15.34804 | -48.45636 | 6983 ft | 279 kts | 153° |
| 2026-04-17 00:44 | -15.36535 | -48.44735 | 6977 ft | 280 kts | 153° |
| 2026-04-17 00:44 | -15.38275 | -48.43830 | 6989 ft | 280 kts | 153° |
| 2026-04-17 00:44 | -15.40012 | -48.42926 | 6985 ft | 280 kts | 153° |
| 2026-04-17 00:45 | -15.41752 | -48.42021 | 6986 ft | 280 kts | 153° |
| 2026-04-17 00:45 | -15.43490 | -48.41116 | 6983 ft | 279 kts | 153° |
| 2026-04-17 00:45 | -15.45230 | -48.40212 | 6992 ft | 280 kts | 153° |
| 2026-04-17 00:45 | -15.46968 | -48.39306 | 6995 ft | 280 kts | 153° |
| 2026-04-17 00:46 | -15.48684 | -48.38412 | 7000 ft | 279 kts | 153° |
| 2026-04-17 00:46 | -15.50419 | -48.37508 | 6991 ft | 279 kts | 153° |
| 2026-04-17 00:46 | -15.52156 | -48.36604 | 6998 ft | 279 kts | 153° |
| 2026-04-17 00:46 | -15.53893 | -48.35699 | 7003 ft | 279 kts | 153° |
| 2026-04-17 00:47 | -15.55633 | -48.34793 | 6995 ft | 279 kts | 153° |
| 2026-04-17 00:47 | -15.57371 | -48.33888 | 7006 ft | 278 kts | 153° |
| 2026-04-17 00:47 | -15.59048 | -48.33015 | 6998 ft | 258 kts | 153° |
| 2026-04-17 00:47 | -15.60590 | -48.32217 | 7004 ft | 237 kts | 153° |
| 2026-04-17 00:48 | -15.62059 | -48.31461 | 7003 ft | 241 kts | 153° |
| 2026-04-17 00:48 | -15.63544 | -48.30697 | 7008 ft | 239 kts | 153° |
| 2026-04-17 00:48 | -15.65032 | -48.29933 | 7025 ft | 240 kts | 153° |
| 2026-04-17 00:48 | -15.66526 | -48.29164 | 7002 ft | 239 kts | 152° |
| 2026-04-17 00:49 | -15.68013 | -48.28399 | 7007 ft | 239 kts | 152° |
| 2026-04-17 00:49 | -15.69505 | -48.27631 | 7008 ft | 239 kts | 152° |
| 2026-04-17 00:49 | -15.70991 | -48.26866 | 7007 ft | 239 kts | 152° |
| 2026-04-17 00:49 | -15.72361 | -48.26159 | 7011 ft | 239 kts | 152° |
| 2026-04-17 00:50 | -15.73844 | -48.25396 | 7012 ft | 237 kts | 152° |
| 2026-04-17 00:50 | -15.75303 | -48.24647 | 6939 ft | 229 kts | 152° |
| 2026-04-17 00:50 | -15.76693 | -48.23932 | 6847 ft | 217 kts | 152° |
| 2026-04-17 00:50 | -15.78008 | -48.23256 | 6732 ft | 206 kts | 152° |
| 2026-04-17 00:51 | -15.79339 | -48.22741 | 6516 ft | 202 kts | 165° |
| 2026-04-17 00:51 | -15.80728 | -48.22537 | 6473 ft | 207 kts | 172° |
| 2026-04-17 00:51 | -15.82142 | -48.22379 | 6455 ft | 202 kts | 172° |
| 2026-04-17 00:51 | -15.83541 | -48.22207 | 6454 ft | 202 kts | 171° |
| 2026-04-17 00:52 | -15.84865 | -48.21803 | 6475 ft | 200 kts | 147° |
| 2026-04-17 00:52 | -15.85788 | -48.20751 | 6473 ft | 198 kts | 116° |
| 2026-04-17 00:52 | -15.86351 | -48.19447 | 6468 ft | 197 kts | 111° |
| 2026-04-17 00:52 | -15.86858 | -48.18131 | 6465 ft | 196 kts | 111° |
| 2026-04-17 00:53 | -15.87381 | -48.16813 | 6467 ft | 197 kts | 112° |
| 2026-04-17 00:53 | -15.87735 | -48.15445 | 6464 ft | 195 kts | 96° |
| 2026-04-17 00:53 | -15.87752 | -48.14046 | 6293 ft | 193 kts | 86° |
| 2026-04-17 00:53 | -15.87628 | -48.12664 | 6185 ft | 194 kts | 85° |
| 2026-04-17 00:54 | -15.87540 | -48.11255 | 6174 ft | 196 kts | 87° |
| 2026-04-17 00:54 | -15.87450 | -48.09841 | 6172 ft | 192 kts | 86° |
| 2026-04-17 00:54 | -15.87367 | -48.08559 | 6175 ft | 169 kts | 87° |
| 2026-04-17 00:54 | -15.87291 | -48.07319 | 6138 ft | 172 kts | 86° |
| 2026-04-17 00:55 | -15.87213 | -48.06116 | 5947 ft | 164 kts | 86° |
| 2026-04-17 00:55 | -15.87140 | -48.04970 | 5745 ft | 156 kts | 86° |
| 2026-04-17 00:55 | -15.87067 | -48.03829 | 5546 ft | 155 kts | 86° |
| 2026-04-17 00:55 | -15.86998 | -48.02756 | 5351 ft | 150 kts | 87° |
| 2026-04-17 00:56 | -15.86928 | -48.01662 | 5171 ft | 152 kts | 87° |
| 2026-04-17 00:56 | -15.86856 | -48.00568 | 4981 ft | 149 kts | 87° |
| 2026-04-17 00:56 | -15.86790 | -47.99509 | 4797 ft | 149 kts | 87° |
| 2026-04-17 00:56 | -15.86722 | -47.98431 | 4598 ft | 150 kts | 86° |
| 2026-04-17 00:57 | -15.86651 | -47.97349 | 4381 ft | 149 kts | 87° |
| 2026-04-17 00:57 | -15.86583 | -47.96264 | 4196 ft | 153 kts | 86° |
| 2026-04-17 00:57 | -15.86512 | -47.95163 | 3957 ft | 152 kts | 87° |
| 2026-04-17 00:57 | -15.86442 | -47.94068 | 3767 ft | 153 kts | 86° |
| 2026-04-17 00:58 | -15.86371 | -47.92979 | 3568 ft | 151 kts | 88° |
| 2026-04-17 00:58 | -15.86311 | -47.91898 | 3471 ft | 133 kts | 86° |
| 2026-04-17 00:58 | -15.86266 | -47.91250 | 3471 ft | 46 kts | 86° |
| 2026-04-17 00:58 | -15.86239 | -47.90963 | 3482 ft | 31 kts | 84° |
| 2026-04-17 00:59 | -15.86246 | -47.90835 | 3483 ft | 5 kts | 106° |
| 2026-04-17 00:59 | -15.86256 | -47.90824 | 3480 ft | 1 kts | 134° |
| 2026-04-17 00:59 | -15.86261 | -47.90820 | 3481 ft | 3 kts | 135° |
| 2026-04-17 00:59 | -15.86288 | -47.90796 | 3483 ft | 5 kts | 140° |
| 2026-04-17 01:00 | -15.86311 | -47.90777 | 3484 ft | 3 kts | 140° |
| 2026-04-17 01:00 | -15.86337 | -47.90748 | 3484 ft | 9 kts | 131° |
| 2026-04-17 01:00 | -15.86389 | -47.90726 | 3486 ft | 7 kts | 192° |
| 2026-04-17 01:00 | -15.86423 | -47.90795 | 3484 ft | 14 kts | 255° |
| 2026-04-17 01:01 | -15.86434 | -47.90905 | 3482 ft | 17 kts | 265° |
| 2026-04-17 01:01 | -15.86447 | -47.91042 | 3478 ft | 21 kts | 264° |
| 2026-04-17 01:01 | -15.86458 | -47.91200 | 3476 ft | 23 kts | 271° |
| 2026-04-17 01:01 | -15.86460 | -47.91367 | 3474 ft | 23 kts | 268° |
| 2026-04-17 01:02 | -15.86473 | -47.91536 | 3472 ft | 24 kts | 264° |
| 2026-04-17 01:02 | -15.86487 | -47.91712 | 3470 ft | 25 kts | 265° |
| 2026-04-17 01:02 | -15.86570 | -47.91814 | 3470 ft | 18 kts | 208° |
| 2026-04-17 01:02 | -15.86621 | -47.91923 | 3470 ft | 17 kts | 260° |
| 2026-04-17 01:03 | -15.86627 | -47.92051 | 3469 ft | 18 kts | 269° |
| 2026-04-17 01:03 | -15.86619 | -47.92182 | 3469 ft | 17 kts | 285° |
| 2026-04-17 01:03 | -15.86629 | -47.92236 | 3467 ft | 6 kts | 233° |
| 2026-04-17 01:03 | -15.86666 | -47.92260 | 3469 ft | 7 kts | 209° |
| 2026-04-17 01:04 | -15.86697 | -47.92276 | 3470 ft | 0 kts | 207° |